Time;durP1;ratioP1;P1;durP2;ratioP2;P2;SDS_P1;SDS_P2;PMS_P1;PMS_P2;Temp;Humidity;BMP_temperature;BMP_pressure;BME280_temperature;BME280_humidity;BME280_pressure;Samples;Min_cycle;Max_cycle;Signal;HPM_P1;HPM_P2
2021/10/24 00:02:21;;;;;;;1.58;0.50;;;20.90;46.00;;;;;;5045791;28;20528;-40
2021/10/24 00:04:48;;;;;;;0.85;0.43;;;20.90;46.00;;;;;;5045907;28;20063;-41
2021/10/24 00:07:15;;;;;;;2.53;0.32;;;20.80;45.90;;;;;;5049734;28;20060;-40
2021/10/24 00:09:42;;;;;;;1.20;0.55;;;20.90;46.00;;;;;;5049640;28;20033;-42
2021/10/24 00:12:10;;;;;;;1.27;0.70;;;20.80;46.00;;;;;;5050329;28;20194;-43
2021/10/24 00:14:37;;;;;;;1.92;0.50;;;20.80;45.90;;;;;;5047108;28;20390;-42
2021/10/24 00:17:05;;;;;;;0.75;0.50;;;20.80;45.90;;;;;;5050037;28;20041;-42
2021/10/24 00:19:33;;;;;;;0.77;0.77;;;20.80;45.90;;;;;;5049825;28;20063;-41
2021/10/24 00:22:00;;;;;;;1.58;0.52;;;20.80;45.90;;;;;;5049896;28;20128;-41
2021/10/24 00:24:27;;;;;;;0.80;0.60;;;20.80;45.90;;;;;;5049595;28;20033;-41
2021/10/24 00:26:54;;;;;;;0.73;0.73;;;20.80;46.00;;;;;;5051190;28;20123;-41
2021/10/24 00:29:21;;;;;;;0.43;0.20;;;20.80;45.90;;;;;;5049116;28;20672;-41
2021/10/24 00:31:48;;;;;;;0.80;0.30;;;20.80;45.90;;;;;;5048183;28;20131;-41
2021/10/24 00:34:17;;;;;;;1.95;0.43;;;20.80;46.00;;;;;;5049522;28;20063;-40
2021/10/24 00:36:44;;;;;;;0.70;0.55;;;20.80;46.00;;;;;;5047904;28;20084;-41
2021/10/24 00:39:11;;;;;;;1.33;0.30;;;20.80;46.00;;;;;;5049464;28;20041;-42
2021/10/24 00:41:39;;;;;;;1.85;0.50;;;20.80;46.20;;;;;;5050547;28;20048;-41
2021/10/24 00:44:21;;;;;;;0.65;0.40;;;20.80;46.00;;;;;;5048938;28;20056;-41
2021/10/24 00:46:49;;;;;;;0.40;0.20;;;20.80;46.00;;;;;;5049693;28;20044;-41
2021/10/24 00:49:17;;;;;;;1.33;0.52;;;20.70;46.00;;;;;;5049150;28;20059;-41
2021/10/24 00:51:45;;;;;;;2.28;0.32;;;20.70;45.90;;;;;;5049136;28;20033;-41
2021/10/24 00:54:13;;;;;;;1.38;0.68;;;20.70;45.90;;;;;;5049415;28;20071;-42
2021/10/24 00:56:44;;;;;;;1.25;0.65;;;20.70;45.90;;;;;;5049983;28;20048;-41
2021/10/24 00:59:12;;;;;;;2.25;0.50;;;20.70;45.90;;;;;;5047742;28;20127;-41
2021/10/24 01:01:39;;;;;;;1.70;0.30;;;20.70;46.00;;;;;;5044063;28;20044;-41
2021/10/24 01:04:08;;;;;;;1.58;0.40;;;20.70;45.90;;;;;;5038212;28;20091;-40
2021/10/24 01:06:39;;;;;;;0.43;0.30;;;20.70;45.90;;;;;;5048820;28;20095;-40
2021/10/24 01:09:08;;;;;;;0.60;0.35;;;20.70;46.50;;;;;;5049584;28;20037;-43
2021/10/24 01:11:35;;;;;;;1.85;0.17;;;20.70;46.00;;;;;;5049629;28;20033;-40
2021/10/24 01:14:02;;;;;;;0.73;0.40;;;20.70;46.00;;;;;;5048621;28;20063;-40
2021/10/24 01:16:35;;;;;;;0.20;0.20;;;20.70;46.00;;;;;;5046491;28;20085;-41
2021/10/24 01:19:03;;;;;;;0.38;0.38;;;20.70;46.00;;;;;;5047290;28;20501;-42
2021/10/24 01:21:32;;;;;;;1.67;0.20;;;20.70;46.00;;;;;;5031361;28;20861;-40
2021/10/24 01:23:59;;;;;;;0.40;0.40;;;20.70;46.00;;;;;;5044658;28;20386;-41
2021/10/24 01:26:27;;;;;;;0.80;0.30;;;20.70;46.00;;;;;;5047135;28;20120;-41
2021/10/24 01:28:55;;;;;;;1.33;0.45;;;20.70;46.00;;;;;;5048415;28;20637;-41
2021/10/24 01:31:23;;;;;;;0.85;0.40;;;20.60;46.00;;;;;;5044788;28;20094;-41
2021/10/24 01:33:50;;;;;;;0.60;0.17;;;20.60;46.00;;;;;;5046839;28;20072;-42
2021/10/24 01:36:17;;;;;;;1.58;0.50;;;20.60;46.00;;;;;;5046816;28;20078;-41
2021/10/24 01:38:49;;;;;;;0.57;0.50;;;20.60;45.90;;;;;;5049729;28;20789;-40
2021/10/24 01:41:18;;;;;;;0.70;0.60;;;20.60;46.00;;;;;;5046372;28;20044;-49
2021/10/24 01:43:46;;;;;;;0.40;0.35;;;20.60;46.60;;;;;;5046803;28;20124;-41
2021/10/24 01:46:14;;;;;;;0.50;0.50;;;20.60;46.00;;;;;;5047038;28;20398;-41
2021/10/24 01:48:41;;;;;;;1.27;0.50;;;20.60;46.00;;;;;;5047096;28;20120;-41
2021/10/24 01:51:09;;;;;;;2.00;0.20;;;20.60;46.00;;;;;;5048435;28;20041;-41
2021/10/24 01:53:39;;;;;;;0.77;0.73;;;20.60;46.00;;;;;;5047913;28;20049;-40
2021/10/24 01:56:09;;;;;;;0.63;0.40;;;20.60;46.00;;;;;;5046288;28;20045;-43
2021/10/24 01:58:38;;;;;;;0.85;0.40;;;20.60;46.00;;;;;;5046474;28;20505;-43
2021/10/24 02:01:07;;;;;;;1.20;0.40;;;20.60;46.60;;;;;;5046512;28;20053;-42
2021/10/24 02:03:57;;;;;;;1.60;0.57;;;20.60;46.00;;;;;;5047888;28;20051;-40
2021/10/24 02:06:44;;;;;;;0.90;0.90;;;20.50;46.00;;;;;;5032607;28;20031;-43
2021/10/24 02:09:11;;;;;;;0.85;0.38;;;20.60;46.00;;;;;;5046454;28;20486;-40
2021/10/24 02:11:40;;;;;;;2.40;0.30;;;20.50;46.00;;;;;;5048941;28;20511;-41
2021/10/24 02:14:07;;;;;;;0.88;0.40;;;20.50;46.00;;;;;;5046154;28;20049;-41
2021/10/24 02:16:40;;;;;;;0.47;0.40;;;20.50;46.00;;;;;;5047547;28;20056;-41
2021/10/24 02:19:07;;;;;;;1.00;0.30;;;20.50;46.00;;;;;;5047198;28;20120;-41
2021/10/24 02:21:35;;;;;;;4.68;0.30;;;20.50;46.00;;;;;;5045656;28;20040;-40
2021/10/24 02:24:02;;;;;;;1.40;0.63;;;20.50;46.00;;;;;;5046130;28;20037;-40
2021/10/24 02:26:30;;;;;;;0.95;0.50;;;20.50;46.00;;;;;;5046437;28;20630;-41
2021/10/24 02:28:59;;;;;;;0.57;0.40;;;20.50;46.00;;;;;;5045527;28;20394;-39
2021/10/24 02:31:26;;;;;;;0.80;0.55;;;20.50;46.00;;;;;;5047221;28;20885;-41
2021/10/24 02:34:18;;;;;;;0.38;0.38;;;20.50;46.00;;;;;;5045846;28;20425;-40
2021/10/24 02:37:02;;;;;;;0.95;0.40;;;20.50;46.00;;;;;;5045809;28;20544;-41
2021/10/24 02:39:30;;;;;;;0.30;0.28;;;20.50;46.00;;;;;;5033291;28;20079;-42
2021/10/24 02:41:57;;;;;;;4.53;0.40;;;20.40;46.60;;;;;;5042915;28;20494;-41
2021/10/24 02:44:26;;;;;;;0.70;0.30;;;20.50;46.00;;;;;;5045690;28;20523;-42
2021/10/24 02:46:56;;;;;;;0.85;0.40;;;20.40;46.00;;;;;;5046473;28;20051;-41
2021/10/24 02:49:23;;;;;;;1.33;0.32;;;20.40;45.90;;;;;;5047855;28;20049;-42
2021/10/24 02:51:54;;;;;;;0.82;0.32;;;20.40;46.00;;;;;;5045743;28;20072;-40
2021/10/24 02:54:22;;;;;;;1.17;0.40;;;20.40;46.00;;;;;;5045270;28;20049;-40
2021/10/24 02:56:49;;;;;;;1.00;0.20;;;20.40;46.00;;;;;;5063740;28;20040;-40
2021/10/24 02:59:18;;;;;;;0.65;0.30;;;20.40;46.00;;;;;;5045464;28;20048;-40
2021/10/24 03:01:48;;;;;;;0.82;0.30;;;20.40;46.00;;;;;;5046555;28;20063;-41
2021/10/24 03:04:15;;;;;;;0.77;0.20;;;20.40;46.00;;;;;;5046713;28;20158;-40
2021/10/24 03:06:46;;;;;;;0.45;0.20;;;20.40;46.00;;;;;;5045509;28;20059;-42
2021/10/24 03:09:14;;;;;;;0.68;0.20;;;20.40;46.00;;;;;;5046494;28;20041;-42
2021/10/24 03:11:41;;;;;;;0.68;0.45;;;20.40;46.00;;;;;;5046375;28;20055;-42
2021/10/24 03:14:08;;;;;;;0.73;0.20;;;20.40;46.00;;;;;;5045126;28;20132;-41
2021/10/24 03:16:35;;;;;;;0.70;0.17;;;20.40;46.50;;;;;;5045026;28;20508;-40
2021/10/24 03:19:04;;;;;;;1.25;0.43;;;20.40;46.00;;;;;;5046611;28;20440;-41
2021/10/24 03:21:32;;;;;;;1.85;0.20;;;20.40;46.00;;;;;;5045769;28;20041;-40
2021/10/24 03:24:01;;;;;;;0.50;0.30;;;20.40;46.00;;;;;;5043660;28;20497;-41
2021/10/24 03:26:29;;;;;;;0.68;0.32;;;20.40;46.00;;;;;;5062114;28;20386;-40
2021/10/24 03:28:58;;;;;;;0.40;0.40;;;20.40;46.00;;;;;;5045243;28;20095;-40
2021/10/24 03:31:26;;;;;;;1.05;0.20;;;20.40;46.00;;;;;;5044649;28;20048;-42
2021/10/24 03:33:53;;;;;;;0.25;0.25;;;20.30;46.00;;;;;;5046350;28;20044;-40
2021/10/24 03:36:22;;;;;;;1.55;0.30;;;20.30;46.00;;;;;;5044602;28;20061;-40
2021/10/24 03:38:50;;;;;;;0.40;0.40;;;20.30;46.00;;;;;;5026055;28;20072;-40
2021/10/24 03:41:18;;;;;;;0.70;0.30;;;20.30;45.90;;;;;;5043315;28;20083;-39
2021/10/24 03:43:45;;;;;;;0.82;0.22;;;20.30;46.00;;;;;;5044816;28;20517;-41
2021/10/24 03:46:12;;;;;;;1.85;0.30;;;20.30;46.00;;;;;;5046313;28;20129;-42
2021/10/24 03:48:40;;;;;;;0.82;0.20;;;20.30;46.00;;;;;;5045003;28;20741;-40
2021/10/24 03:51:08;;;;;;;0.52;0.40;;;20.30;46.00;;;;;;5044872;28;20049;-39
2021/10/24 03:53:36;;;;;;;0.90;0.60;;;20.30;46.00;;;;;;5045898;28;20045;-40
2021/10/24 03:56:04;;;;;;;0.90;0.10;;;20.30;46.00;;;;;;5044809;28;20067;-39
2021/10/24 03:58:39;;;;;;;2.58;0.30;;;20.30;46.00;;;;;;5044771;28;20037;-39
2021/10/24 04:01:06;;;;;;;1.17;0.50;;;20.20;46.00;;;;;;5046124;28;20059;-39
2021/10/24 04:03:35;;;;;;;0.20;0.20;;;20.30;46.00;;;;;;5044850;28;20033;-39
2021/10/24 04:06:03;;;;;;;0.57;0.28;;;20.30;46.00;;;;;;5045057;28;20087;-41
2021/10/24 04:08:30;;;;;;;0.20;0.20;;;20.30;46.00;;;;;;5045837;28;20131;-39
2021/10/24 04:10:59;;;;;;;0.77;0.30;;;20.30;46.00;;;;;;5044320;28;20040;-40
2021/10/24 04:13:26;;;;;;;0.20;0.20;;;20.30;46.00;;;;;;5044333;28;20056;-40
2021/10/24 04:15:53;;;;;;;0.40;0.40;;;20.30;46.00;;;;;;5044475;28;20489;-42
2021/10/24 04:18:49;;;;;;;0.47;0.20;;;20.30;46.00;;;;;;5031626;28;20043;-40
2021/10/24 04:21:16;;;;;;;0.20;0.20;;;20.20;46.00;;;;;;5045701;28;20529;-40
2021/10/24 04:23:44;;;;;;;0.32;0.20;;;20.20;46.00;;;;;;5040677;28;20042;-40
2021/10/24 04:26:12;;;;;;;1.52;0.20;;;20.20;46.00;;;;;;5042366;28;20045;-40
2021/10/24 04:28:39;;;;;;;0.68;0.20;;;20.20;46.00;;;;;;5044542;28;20068;-40
2021/10/24 04:31:07;;;;;;;0.75;0.20;;;20.20;46.00;;;;;;5045921;28;20140;-40
2021/10/24 04:33:34;;;;;;;1.20;0.30;;;20.20;46.00;;;;;;5044454;28;20053;-40
2021/10/24 04:36:01;;;;;;;1.17;0.10;;;20.20;46.60;;;;;;5046957;28;20045;-40
2021/10/24 04:38:31;;;;;;;0.55;0.25;;;20.20;46.00;;;;;;5046182;28;20045;-40
2021/10/24 04:40:58;;;;;;;0.30;0.30;;;20.20;46.00;;;;;;5043700;28;20029;-40
2021/10/24 04:43:26;;;;;;;0.20;0.20;;;20.20;46.00;;;;;;5043641;28;20055;-40
2021/10/24 04:45:55;;;;;;;0.30;0.22;;;20.20;46.00;;;;;;5044101;28;20045;-41
2021/10/24 04:48:24;;;;;;;1.33;0.10;;;20.20;46.00;;;;;;5044039;28;20037;-42
2021/10/24 04:50:51;;;;;;;0.35;0.10;;;20.20;46.00;;;;;;5046147;28;20539;-39
2021/10/24 04:53:19;;;;;;;0.40;0.38;;;20.20;46.00;;;;;;5047839;28;20072;-39
2021/10/24 04:55:48;;;;;;;0.45;0.10;;;20.20;46.00;;;;;;5047615;28;20448;-39
2021/10/24 04:58:15;;;;;;;0.77;0.10;;;20.20;46.00;;;;;;5047850;28;20041;-40
2021/10/24 05:00:44;;;;;;;0.30;0.10;;;20.20;46.00;;;;;;5049244;28;20090;-40
2021/10/24 05:03:13;;;;;;;0.17;0.10;;;20.20;46.00;;;;;;5047670;28;20073;-40
2021/10/24 05:05:44;;;;;;;0.30;0.25;;;20.20;46.60;;;;;;5049137;28;20045;-41
2021/10/24 05:08:12;;;;;;;0.88;0.28;;;20.20;46.00;;;;;;5049012;28;20048;-40
2021/10/24 05:10:41;;;;;;;0.57;0.20;;;20.10;46.00;;;;;;5047216;28;20122;-40
2021/10/24 05:13:09;;;;;;;1.38;0.20;;;20.20;46.00;;;;;;5047008;28;20520;-42
2021/10/24 05:15:36;;;;;;;0.40;0.13;;;20.20;46.00;;;;;;5048566;28;20048;-43
2021/10/24 05:18:07;;;;;;;0.20;0.20;;;20.10;46.00;;;;;;5047711;28;20140;-40
2021/10/24 05:20:36;;;;;;;0.85;0.20;;;20.10;45.90;;;;;;5047457;28;20093;-40
2021/10/24 05:23:05;;;;;;;0.20;0.10;;;20.10;46.00;;;;;;5047008;28;20041;-41
2021/10/24 05:25:34;;;;;;;0.47;0.10;;;20.10;45.90;;;;;;5030519;28;20134;-39
2021/10/24 05:28:03;;;;;;;0.77;0.10;;;20.10;45.90;;;;;;5047040;28;20679;-40
2021/10/24 05:30:30;;;;;;;0.50;0.40;;;20.10;45.90;;;;;;5031530;28;20296;-41
2021/10/24 05:32:57;;;;;;;0.63;0.20;;;20.10;46.00;;;;;;5049372;28;20143;-40
2021/10/24 05:35:28;;;;;;;1.75;0.20;;;20.10;45.90;;;;;;5047196;28;20044;-41
2021/10/24 05:37:56;;;;;;;0.30;0.20;;;20.10;45.90;;;;;;5046598;28;20041;-41
2021/10/24 05:40:23;;;;;;;0.20;0.10;;;20.10;45.90;;;;;;5046087;28;20540;-43
2021/10/24 05:42:54;;;;;;;0.63;0.10;;;20.10;45.90;;;;;;5045228;28;20606;-42
2021/10/24 05:45:22;;;;;;;1.75;0.20;;;20.10;46.00;;;;;;5048159;28;20408;-41
2021/10/24 05:47:49;;;;;;;0.40;0.20;;;20.10;46.00;;;;;;5048103;28;20102;-41
2021/10/24 05:50:41;;;;;;;0.20;0.20;;;20.00;45.90;;;;;;5049361;28;20055;-43
2021/10/24 05:53:08;;;;;;;1.85;0.20;;;20.00;45.90;;;;;;5046675;28;20390;-41
2021/10/24 05:55:36;;;;;;;0.50;0.10;;;20.00;46.00;;;;;;5046451;28;20041;-40
2021/10/24 05:58:04;;;;;;;0.30;0.10;;;20.00;46.00;;;;;;5046557;28;20041;-41
2021/10/24 06:01:00;;;;;;;1.15;0.28;;;20.00;46.00;;;;;;5034349;28;20041;-40
2021/10/24 06:03:46;;;;;;;0.20;0.10;;;20.00;46.00;;;;;;5033273;28;20519;-41
2021/10/24 06:06:33;;;;;;;0.30;0.15;;;19.90;46.00;;;;;;5031827;28;20033;-46
2021/10/24 06:09:01;;;;;;;0.82;0.10;;;20.00;46.00;;;;;;5039983;28;20064;-41
2021/10/24 06:11:33;;;;;;;0.13;0.10;;;20.00;46.00;;;;;;5046459;28;20397;-42
2021/10/24 06:14:00;;;;;;;0.73;0.20;;;20.00;46.00;;;;;;5046116;28;20048;-40
2021/10/24 06:16:28;;;;;;;0.20;0.20;;;20.00;46.00;;;;;;5047354;28;20079;-41
2021/10/24 06:18:56;;;;;;;0.20;0.20;;;20.00;46.20;;;;;;5046076;28;20164;-41
2021/10/24 06:21:23;;;;;;;0.30;0.20;;;20.00;46.00;;;;;;5045833;28;20055;-41
2021/10/24 06:23:51;;;;;;;0.50;0.13;;;20.00;46.00;;;;;;5047136;28;20041;-41
2021/10/24 06:26:18;;;;;;;0.88;0.25;;;20.00;46.00;;;;;;5045498;28;20072;-40
2021/10/24 06:28:46;;;;;;;1.85;0.20;;;20.00;45.90;;;;;;5021349;28;20041;-42
2021/10/24 06:31:13;;;;;;;0.80;0.20;;;20.00;46.00;;;;;;5038565;28;20124;-41
2021/10/24 06:34:19;;;;;;;2.10;0.45;;;20.00;46.10;;;;;;4999412;28;20270;-41
2021/10/24 06:37:23;;;;;;;3.38;0.15;;;19.90;46.20;;;;;;4986989;28;20057;-41
2021/10/24 06:39:56;;;;;;;4.63;0.30;;;19.90;46.40;;;;;;4982168;28;20125;-40
2021/10/24 06:42:23;;;;;;;3.05;0.43;;;20.00;46.70;;;;;;4988022;28;20049;-41
2021/10/24 06:45:10;;;;;;;6.18;0.45;;;20.00;46.70;;;;;;5000658;28;20133;-40
2021/10/24 06:48:09;;;;;;;3.40;0.63;;;19.90;46.60;;;;;;4965866;28;20065;-40
2021/10/24 06:51:02;;;;;;;2.28;0.25;;;19.90;46.60;;;;;;4966511;28;20051;-40
2021/10/24 06:54:02;;;;;;;1.08;0.20;;;19.90;46.60;;;;;;4957634;28;20153;-40
2021/10/24 06:57:03;;;;;;;4.70;0.30;;;19.90;46.60;;;;;;4913386;29;20055;-41
2021/10/24 06:59:48;;;;;;;0.75;0.20;;;19.90;46.60;;;;;;4928353;29;20091;-42
2021/10/24 07:02:30;;;;;;;3.60;0.40;;;19.90;46.60;;;;;;4927731;29;20134;-40
2021/10/24 07:05:19;;;;;;;2.10;0.20;;;19.90;46.60;;;;;;4955996;28;20093;-40
2021/10/24 07:07:48;;;;;;;0.77;0.38;;;19.90;46.60;;;;;;4975845;28;20061;-40
2021/10/24 07:10:16;;;;;;;0.25;0.13;;;19.90;46.50;;;;;;4975693;28;20058;-41
2021/10/24 07:12:51;;;;;;;1.77;0.20;;;19.90;46.50;;;;;;4978266;28;20054;-40
2021/10/24 07:15:20;;;;;;;0.98;0.20;;;19.90;46.40;;;;;;4979339;28;20050;-39
2021/10/24 07:17:47;;;;;;;1.40;0.30;;;20.00;46.50;;;;;;4968684;28;20055;-39
2021/10/24 07:20:15;;;;;;;0.63;0.30;;;19.90;46.40;;;;;;4958074;28;20432;-41
2021/10/24 07:22:57;;;;;;;5.68;0.20;;;20.00;46.40;;;;;;4959636;28;20578;-41
2021/10/24 07:26:02;;;;;;;0.75;0.45;;;19.90;46.40;;;;;;4983526;28;20062;-42
2021/10/24 07:28:31;;;;;;;0.63;0.13;;;19.90;46.30;;;;;;4983964;28;20069;-42
2021/10/24 07:30:59;;;;;;;1.80;0.32;;;19.90;46.30;;;;;;4984504;28;20174;-39
2021/10/24 07:33:26;;;;;;;0.90;0.10;;;19.90;46.30;;;;;;5030893;28;20052;-41
2021/10/24 07:36:16;;;;;;;0.30;0.20;;;19.90;46.30;;;;;;5042884;28;20174;-41
2021/10/24 07:38:43;;;;;;;0.52;0.20;;;20.00;46.30;;;;;;5045781;28;20466;-42
2021/10/24 07:41:10;;;;;;;2.42;0.20;;;20.00;46.30;;;;;;5044348;28;20041;-40
2021/10/24 07:43:40;;;;;;;2.55;0.20;;;20.00;46.20;;;;;;5044421;28;20033;-39
2021/10/24 07:46:09;;;;;;;3.88;0.30;;;20.00;46.20;;;;;;5044740;28;20535;-41
2021/10/24 07:48:36;;;;;;;0.30;0.10;;;20.00;46.20;;;;;;5044738;28;20036;-40
2021/10/24 07:51:08;;;;;;;0.65;0.30;;;20.00;46.20;;;;;;5020606;28;20394;-41
2021/10/24 07:53:36;;;;;;;0.55;0.13;;;20.00;46.20;;;;;;5045589;28;20756;-40
2021/10/24 07:56:09;;;;;;;1.95;0.10;;;20.00;46.20;;;;;;5041190;28;20052;-39
2021/10/24 07:59:01;;;;;;;3.35;0.40;;;20.00;46.20;;;;;;5040291;28;20127;-41
2021/10/24 08:01:28;;;;;;;0.20;0.20;;;20.00;46.20;;;;;;5044538;28;20052;-39
2021/10/24 08:03:57;;;;;;;1.40;0.17;;;20.00;46.10;;;;;;5044511;28;20033;-40
2021/10/24 08:06:32;;;;;;;0.90;0.10;;;20.00;46.10;;;;;;5044627;28;20127;-40
2021/10/24 08:09:01;;;;;;;1.00;0.20;;;20.00;46.10;;;;;;5041754;28;20052;-42
2021/10/24 08:11:28;;;;;;;0.95;0.30;;;20.00;46.00;;;;;;5046085;28;20041;-40
2021/10/24 08:13:56;;;;;;;0.22;0.10;;;20.00;46.00;;;;;;5044440;28;20138;-40
2021/10/24 08:16:24;;;;;;;3.80;0.10;;;20.00;46.00;;;;;;5044352;28;20048;-44
2021/10/24 08:18:52;;;;;;;0.60;0.10;;;20.10;45.90;;;;;;5044765;28;20044;-42
2021/10/24 08:21:31;;;;;;;0.20;0.10;;;20.00;45.90;;;;;;5028686;28;20048;-43
2021/10/24 08:24:00;;;;;;;0.90;0.10;;;20.10;45.90;;;;;;5041729;28;20122;-41
2021/10/24 08:26:27;;;;;;;0.43;0.20;;;20.10;45.80;;;;;;5045258;28;20133;-41
2021/10/24 08:28:55;;;;;;;0.70;0.13;;;20.10;45.80;;;;;;5048498;28;20045;-40
2021/10/24 08:31:49;;;;;;;0.43;0.20;;;20.10;45.80;;;;;;5049309;28;20044;-40
2021/10/24 08:34:17;;;;;;;2.40;0.15;;;20.10;45.80;;;;;;5048313;28;20049;-39
2021/10/24 08:36:45;;;;;;;0.38;0.30;;;20.10;45.80;;;;;;5049417;28;20053;-39
2021/10/24 08:39:12;;;;;;;0.82;0.10;;;20.10;45.70;;;;;;5049530;28;20041;-41
2021/10/24 08:41:41;;;;;;;1.05;0.17;;;20.10;45.70;;;;;;5049987;28;20140;-41
2021/10/24 08:44:08;;;;;;;2.15;0.10;;;20.10;45.70;;;;;;5049199;28;20132;-41
2021/10/24 08:46:35;;;;;;;0.47;0.47;;;20.10;45.60;;;;;;5047578;28;20037;-42
2021/10/24 08:49:04;;;;;;;1.00;0.30;;;20.10;45.60;;;;;;5049122;28;20121;-44
2021/10/24 08:51:31;;;;;;;0.68;0.40;;;20.20;45.60;;;;;;5033419;28;20083;-42
2021/10/24 08:53:59;;;;;;;0.60;0.60;;;20.10;45.50;;;;;;5044507;28;20049;-42
2021/10/24 08:56:29;;;;;;;1.17;0.10;;;20.20;45.50;;;;;;5048675;28;20461;-41
2021/10/24 08:58:57;;;;;;;1.63;0.20;;;20.20;45.50;;;;;;5048924;28;20032;-40
2021/10/24 09:01:24;;;;;;;0.35;0.25;;;20.20;45.50;;;;;;5049312;28;20077;-40
2021/10/24 09:04:08;;;;;;;0.80;0.20;;;20.20;45.50;;;;;;5049403;28;20048;-41
2021/10/24 09:06:47;;;;;;;0.75;0.25;;;20.20;45.40;;;;;;5049113;28;20132;-40
2021/10/24 09:09:26;;;;;;;0.35;0.30;;;20.20;45.40;;;;;;5048868;28;20132;-39
2021/10/24 09:11:59;;;;;;;0.88;0.28;;;20.20;45.40;;;;;;5050375;28;20068;-40
2021/10/24 09:14:37;;;;;;;0.30;0.30;;;20.20;45.30;;;;;;5048907;28;20087;-40
2021/10/24 09:17:04;;;;;;;0.40;0.10;;;20.20;45.30;;;;;;5048654;28;20512;-41
2021/10/24 09:19:39;;;;;;;0.30;0.30;;;20.20;45.30;;;;;;5048890;28;20520;-41
2021/10/24 09:22:22;;;;;;;0.68;0.10;;;20.30;45.30;;;;;;5048758;28;20048;-41
2021/10/24 09:25:08;;;;;;;1.33;1.23;;;20.30;45.20;;;;;;5048496;28;20464;-42
2021/10/24 09:27:42;;;;;;;1.85;0.20;;;20.30;45.20;;;;;;5033459;28;20044;-42
2021/10/24 09:30:10;;;;;;;1.00;0.20;;;20.30;45.20;;;;;;5049506;28;20056;-38
2021/10/24 09:32:49;;;;;;;0.82;0.20;;;20.30;45.20;;;;;;5048950;28;20132;-41
2021/10/24 09:35:17;;;;;;;0.73;0.20;;;20.30;45.10;;;;;;5048159;28;20052;-41
2021/10/24 09:38:08;;;;;;;0.20;0.15;;;20.30;45.10;;;;;;5047561;28;20060;-41
2021/10/24 09:40:49;;;;;;;1.02;0.45;;;20.30;45.10;;;;;;5046884;28;20037;-41
2021/10/24 09:43:19;;;;;;;1.15;0.20;;;20.30;45.10;;;;;;5048545;28;20159;-42
2021/10/24 09:45:48;;;;;;;0.30;0.20;;;20.30;45.00;;;;;;5048495;28;20044;-41
2021/10/24 09:48:19;;;;;;;0.70;0.30;;;20.30;45.60;;;;;;5044983;28;20109;-41
2021/10/24 09:50:51;;;;;;;0.50;0.20;;;20.40;45.00;;;;;;5050601;28;20814;-41
2021/10/24 09:53:22;;;;;;;0.30;0.20;;;20.40;45.00;;;;;;5048246;28;20055;-41
2021/10/24 09:56:05;;;;;;;0.60;0.20;;;20.40;45.00;;;;;;5048248;28;20041;-41
2021/10/24 09:58:34;;;;;;;0.52;0.20;;;20.40;44.90;;;;;;5048102;28;20128;-42
2021/10/24 10:01:02;;;;;;;0.30;0.20;;;20.40;44.90;;;;;;5048385;28;20056;-41
2021/10/24 10:03:30;;;;;;;0.98;0.20;;;20.40;44.90;;;;;;5048291;28;20123;-42
2021/10/24 10:05:59;;;;;;;1.80;0.28;;;20.40;45.40;;;;;;5049500;28;20136;-41
2021/10/24 10:08:26;;;;;;;0.35;0.35;;;20.50;44.80;;;;;;5047985;28;20152;-44
2021/10/24 10:10:55;;;;;;;1.23;0.20;;;20.50;44.80;;;;;;5047943;28;20037;-41
2021/10/24 10:13:26;;;;;;;0.17;0.10;;;20.50;44.80;;;;;;5047847;28;20048;-41
2021/10/24 10:15:54;;;;;;;1.58;0.75;;;20.50;44.80;;;;;;5047909;28;20037;-42
2021/10/24 10:18:22;;;;;;;0.75;0.38;;;20.50;44.80;;;;;;5047592;28;20041;-41
2021/10/24 10:20:51;;;;;;;0.60;0.32;;;20.50;44.70;;;;;;5049019;28;20051;-41
2021/10/24 10:23:23;;;;;;;0.52;0.30;;;20.50;44.70;;;;;;5047400;28;20037;-42
2021/10/24 10:25:51;;;;;;;0.35;0.30;;;20.60;44.80;;;;;;5047710;28;20048;-41
2021/10/24 10:28:46;;;;;;;1.05;0.43;;;20.50;44.70;;;;;;5047406;28;20045;-40
2021/10/24 10:31:15;;;;;;;0.68;0.40;;;20.60;44.70;;;;;;5047302;28;20049;-42
2021/10/24 10:33:56;;;;;;;2.33;0.60;;;20.60;44.70;;;;;;5047573;28;20068;-41
2021/10/24 10:36:23;;;;;;;2.40;0.28;;;20.60;44.70;;;;;;5047016;28;20052;-41
2021/10/24 10:38:51;;;;;;;1.08;0.43;;;20.60;44.70;;;;;;5048672;28;20524;-41
2021/10/24 10:41:35;;;;;;;0.47;0.17;;;20.70;44.60;;;;;;5047332;28;20041;-42
2021/10/24 10:44:05;;;;;;;1.25;0.17;;;20.70;44.60;;;;;;5047412;28;20136;-41
2021/10/24 10:46:32;;;;;;;1.48;0.50;;;20.70;44.60;;;;;;5047359;28;20029;-41
2021/10/24 10:49:26;;;;;;;0.20;0.20;;;20.70;44.50;;;;;;5047247;28;20044;-40
2021/10/24 10:51:54;;;;;;;1.15;0.20;;;20.70;44.40;;;;;;5033883;28;20068;-41
2021/10/24 10:54:22;;;;;;;0.60;0.20;;;20.70;44.50;;;;;;5047266;28;20045;-41
2021/10/24 10:56:54;;;;;;;1.40;0.20;;;20.80;44.40;;;;;;5048627;28;20049;-41
2021/10/24 10:59:33;;;;;;;0.30;0.30;;;20.80;44.40;;;;;;5047344;28;20044;-42
2021/10/24 11:02:20;;;;;;;0.65;0.20;;;20.80;44.40;;;;;;5047095;28;20116;-42
2021/10/24 11:04:49;;;;;;;1.48;0.20;;;20.90;44.30;;;;;;5046952;28;20041;-42
2021/10/24 11:07:35;;;;;;;0.32;0.15;;;20.90;44.30;;;;;;5046789;28;20045;-41
2021/10/24 11:10:05;;;;;;;0.28;0.28;;;20.90;44.20;;;;;;5046928;28;20111;-41
2021/10/24 11:12:35;;;;;;;1.40;0.68;;;20.90;44.20;;;;;;5046858;28;20036;-41
2021/10/24 11:15:28;;;;;;;1.40;0.40;;;21.00;44.10;;;;;;5044498;28;20049;-42
2021/10/24 11:17:58;;;;;;;0.20;0.20;;;21.10;44.00;;;;;;5045736;28;20053;-41
2021/10/24 11:20:47;;;;;;;0.22;0.10;;;21.10;44.00;;;;;;5035604;28;20048;-42
2021/10/24 11:23:18;;;;;;;1.05;0.40;;;21.20;43.80;;;;;;5036225;28;20525;-41
2021/10/24 11:25:48;;;;;;;1.85;0.20;;;21.20;43.70;;;;;;5046551;28;20052;-42
2021/10/24 11:28:18;;;;;;;0.82;0.43;;;21.20;43.60;;;;;;5046879;28;20500;-43
2021/10/24 11:30:46;;;;;;;0.47;0.32;;;21.30;43.60;;;;;;5046974;28;20029;-42
2021/10/24 11:33:14;;;;;;;0.85;0.28;;;21.30;43.50;;;;;;5046932;28;20047;-41
2021/10/24 11:35:42;;;;;;;1.02;0.30;;;21.40;43.40;;;;;;5047664;28;20049;-44
2021/10/24 11:38:13;;;;;;;1.08;0.50;;;21.50;43.40;;;;;;5046658;28;20136;-41
2021/10/24 11:40:43;;;;;;;2.05;0.40;;;21.50;43.80;;;;;;5046142;28;20716;-41
2021/10/24 11:43:14;;;;;;;1.58;0.20;;;21.50;43.20;;;;;;5046406;28;20037;-41
2021/10/24 11:45:44;;;;;;;3.33;0.45;;;21.60;43.10;;;;;;5046655;28;20036;-40
2021/10/24 11:48:15;;;;;;;0.95;0.50;;;21.60;43.10;;;;;;5046915;28;20509;-40
2021/10/24 11:50:47;;;;;;;1.45;0.22;;;21.60;43.00;;;;;;5047223;28;20076;-42
2021/10/24 11:53:29;;;;;;;0.65;0.35;;;21.70;43.00;;;;;;5046424;28;20069;-40
2021/10/24 11:56:00;;;;;;;0.43;0.43;;;21.70;42.90;;;;;;5046128;28;20117;-39
2021/10/24 11:58:43;;;;;;;1.65;0.35;;;21.70;42.90;;;;;;5045624;28;20567;-40
2021/10/24 12:01:12;;;;;;;1.75;0.20;;;21.80;42.80;;;;;;5047123;28;20040;-42
2021/10/24 12:03:41;;;;;;;2.42;0.32;;;21.80;42.80;;;;;;5050352;28;20409;-40
2021/10/24 12:06:09;;;;;;;0.75;0.20;;;21.90;42.80;;;;;;5050918;28;20049;-40
2021/10/24 12:08:51;;;;;;;0.52;0.30;;;21.90;42.70;;;;;;5051144;28;20045;-40
2021/10/24 12:11:21;;;;;;;1.95;0.40;;;22.00;42.70;;;;;;5050685;28;20041;-41
2021/10/24 12:13:50;;;;;;;1.10;0.20;;;22.00;42.60;;;;;;5050211;28;20091;-40
2021/10/24 12:16:26;;;;;;;0.30;0.30;;;22.00;42.60;;;;;;5050378;28;20036;-46
2021/10/24 12:19:19;;;;;;;0.65;0.30;;;22.00;42.50;;;;;;5050021;28;20581;-40
2021/10/24 12:22:01;;;;;;;0.65;0.63;;;22.10;42.50;;;;;;5036065;28;20033;-42
2021/10/24 12:24:47;;;;;;;0.57;0.13;;;22.10;42.40;;;;;;5050000;28;20047;-46
2021/10/24 12:27:20;;;;;;;;;;;22.10;42.40;;;;;;5061965;28;20064;-41
2021/10/24 12:30:04;;;;;;;0.40;0.30;;;22.10;42.50;;;;;;5051522;28;20389;-42
2021/10/24 12:32:32;;;;;;;1.08;0.30;;;22.10;42.40;;;;;;5050376;28;20052;-42
2021/10/24 12:35:05;;;;;;;0.95;0.30;;;22.20;42.40;;;;;;5049156;28;20131;-39
2021/10/24 12:37:32;;;;;;;2.80;0.47;;;22.20;42.40;;;;;;5049910;28;20063;-40
2021/10/24 12:40:22;;;;;;;1.67;0.10;;;22.20;42.30;;;;;;5049795;28;21372;-41
2021/10/24 12:43:13;;;;;;;1.45;0.25;;;22.30;42.20;;;;;;5047290;28;20060;-42
2021/10/24 12:45:55;;;;;;;1.15;0.17;;;22.40;42.20;;;;;;5035309;28;20110;-39
2021/10/24 12:48:24;;;;;;;2.10;0.30;;;22.40;42.10;;;;;;5049570;28;20128;-40
2021/10/24 12:50:52;;;;;;;0.30;0.20;;;22.40;42.10;;;;;;5051102;28;20041;-42
2021/10/24 12:53:22;;;;;;;0.35;0.10;;;22.40;42.10;;;;;;5049945;28;20090;-42
2021/10/24 12:56:01;;;;;;;1.17;0.20;;;22.40;42.00;;;;;;5049354;28;20117;-39
2021/10/24 12:58:28;;;;;;;0.75;0.30;;;22.50;42.00;;;;;;5044344;28;20045;-40
2021/10/24 13:00:57;;;;;;;0.40;0.25;;;22.50;42.00;;;;;;5049640;28;20548;-40
2021/10/24 13:03:24;;;;;;;0.93;0.93;;;22.50;41.90;;;;;;5049034;28;21089;-40
2021/10/24 13:05:51;;;;;;;0.28;0.28;;;22.60;42.00;;;;;;5050503;28;20045;-39
2021/10/24 13:08:18;;;;;;;1.30;0.20;;;22.60;41.90;;;;;;5049017;28;20044;-40
2021/10/24 13:10:46;;;;;;;0.70;0.15;;;22.70;41.90;;;;;;5048741;28;20037;-39
2021/10/24 13:13:13;;;;;;;0.57;0.20;;;22.70;41.90;;;;;;5047830;28;20056;-40